sensor_id;sensor_type;location;lat;lon;timestamp;temperature;humidity
53498;DHT22;39382;47.168;16.008;2023-04-25T00:01:04;9.50;99.90
53498;DHT22;39382;47.168;16.008;2023-04-25T00:03:31;9.40;99.90
53498;DHT22;39382;47.168;16.008;2023-04-25T00:05:58;9.40;99.90
53498;DHT22;39382;47.168;16.008;2023-04-25T00:08:28;9.50;99.90
53498;DHT22;39382;47.168;16.008;2023-04-25T00:10:53;9.40;99.90
53498;DHT22;39382;47.168;16.008;2023-04-25T00:13:19;9.40;99.90
53498;DHT22;39382;47.168;16.008;2023-04-25T00:15:45;9.40;99.90
53498;DHT22;39382;47.168;16.008;2023-04-25T00:18:11;9.40;99.90
53498;DHT22;39382;47.168;16.008;2023-04-25T00:20:37;9.30;99.90
53498;DHT22;39382;47.168;16.008;2023-04-25T00:23:03;9.40;99.90
53498;DHT22;39382;47.168;16.008;2023-04-25T00:25:29;9.30;99.90
53498;DHT22;39382;47.168;16.008;2023-04-25T00:27:55;9.30;99.90
53498;DHT22;39382;47.168;16.008;2023-04-25T00:30:20;9.20;99.90
53498;DHT22;39382;47.168;16.008;2023-04-25T00:32:46;9.10;99.90
53498;DHT22;39382;47.168;16.008;2023-04-25T00:35:12;9.10;99.90
53498;DHT22;39382;47.168;16.008;2023-04-25T00:37:37;9.00;99.90
53498;DHT22;39382;47.168;16.008;2023-04-25T00:40:05;9.00;99.90
53498;DHT22;39382;47.168;16.008;2023-04-25T00:42:31;9.00;99.90
53498;DHT22;39382;47.168;16.008;2023-04-25T00:44:58;9.00;99.90
53498;DHT22;39382;47.168;16.008;2023-04-25T00:47:25;9.00;99.90
53498;DHT22;39382;47.168;16.008;2023-04-25T00:49:50;9.00;99.90
53498;DHT22;39382;47.168;16.008;2023-04-25T00:52:16;9.00;99.90
53498;DHT22;39382;47.168;16.008;2023-04-25T00:54:42;9.00;99.90
53498;DHT22;39382;47.168;16.008;2023-04-25T00:57:08;9.00;99.90
53498;DHT22;39382;47.168;16.008;2023-04-25T00:59:35;8.90;99.90
53498;DHT22;39382;47.168;16.008;2023-04-25T01:02:01;8.90;99.90
53498;DHT22;39382;47.168;16.008;2023-04-25T01:04:27;8.90;99.90
53498;DHT22;39382;47.168;16.008;2023-04-25T01:06:54;8.80;99.90
53498;DHT22;39382;47.168;16.008;2023-04-25T01:09:20;8.80;99.90
53498;DHT22;39382;47.168;16.008;2023-04-25T01:11:46;8.80;99.90
53498;DHT22;39382;47.168;16.008;2023-04-25T01:14:11;8.80;99.90
53498;DHT22;39382;47.168;16.008;2023-04-25T01:16:37;8.80;99.90
53498;DHT22;39382;47.168;16.008;2023-04-25T01:19:09;8.80;99.90
53498;DHT22;39382;47.168;16.008;2023-04-25T01:21:38;8.80;99.90
53498;DHT22;39382;47.168;16.008;2023-04-25T01:24:04;8.70;99.90
53498;DHT22;39382;47.168;16.008;2023-04-25T01:26:31;8.70;99.90
53498;DHT22;39382;47.168;16.008;2023-04-25T01:28:57;8.80;99.90
53498;DHT22;39382;47.168;16.008;2023-04-25T01:31:23;8.70;99.90
53498;DHT22;39382;47.168;16.008;2023-04-25T01:33:49;8.70;99.90
53498;DHT22;39382;47.168;16.008;2023-04-25T01:36:15;8.70;99.90
53498;DHT22;39382;47.168;16.008;2023-04-25T01:38:40;8.80;99.90
53498;DHT22;39382;47.168;16.008;2023-04-25T01:41:07;8.70;99.90
53498;DHT22;39382;47.168;16.008;2023-04-25T01:43:33;8.80;99.90
53498;DHT22;39382;47.168;16.008;2023-04-25T01:45:59;8.80;99.90
53498;DHT22;39382;47.168;16.008;2023-04-25T01:48:25;8.80;99.90
53498;DHT22;39382;47.168;16.008;2023-04-25T01:50:50;8.80;99.90
53498;DHT22;39382;47.168;16.008;2023-04-25T01:53:16;8.80;99.90
53498;DHT22;39382;47.168;16.008;2023-04-25T01:55:42;8.80;99.90
53498;DHT22;39382;47.168;16.008;2023-04-25T01:58:08;8.90;99.90
53498;DHT22;39382;47.168;16.008;2023-04-25T02:00:38;8.90;99.90
53498;DHT22;39382;47.168;16.008;2023-04-25T02:03:05;8.80;99.90
53498;DHT22;39382;47.168;16.008;2023-04-25T02:05:38;8.80;99.90
53498;DHT22;39382;47.168;16.008;2023-04-25T02:08:07;8.70;99.90
53498;DHT22;39382;47.168;16.008;2023-04-25T02:10:34;8.60;99.90
53498;DHT22;39382;47.168;16.008;2023-04-25T02:12:59;8.60;99.90
53498;DHT22;39382;47.168;16.008;2023-04-25T02:15:25;8.60;99.90
53498;DHT22;39382;47.168;16.008;2023-04-25T02:17:51;8.50;99.90
53498;DHT22;39382;47.168;16.008;2023-04-25T02:20:21;8.40;99.90
53498;DHT22;39382;47.168;16.008;2023-04-25T02:22:47;8.40;99.90
53498;DHT22;39382;47.168;16.008;2023-04-25T02:25:13;8.30;99.90
53498;DHT22;39382;47.168;16.008;2023-04-25T02:27:39;8.20;99.90
53498;DHT22;39382;47.168;16.008;2023-04-25T02:30:05;8.20;99.90
53498;DHT22;39382;47.168;16.008;2023-04-25T02:32:32;8.20;99.90
53498;DHT22;39382;47.168;16.008;2023-04-25T02:34:59;8.20;99.90
53498;DHT22;39382;47.168;16.008;2023-04-25T02:37:29;8.10;99.90
53498;DHT22;39382;47.168;16.008;2023-04-25T02:39:55;8.00;99.90
53498;DHT22;39382;47.168;16.008;2023-04-25T02:42:21;7.90;99.90
53498;DHT22;39382;47.168;16.008;2023-04-25T02:44:46;7.80;99.90
53498;DHT22;39382;47.168;16.008;2023-04-25T02:47:12;7.80;99.90
53498;DHT22;39382;47.168;16.008;2023-04-25T02:49:38;7.70;99.90
53498;DHT22;39382;47.168;16.008;2023-04-25T02:52:03;7.60;99.90
53498;DHT22;39382;47.168;16.008;2023-04-25T02:54:30;7.50;99.90
53498;DHT22;39382;47.168;16.008;2023-04-25T02:56:55;7.50;99.90
53498;DHT22;39382;47.168;16.008;2023-04-25T02:59:21;7.50;99.90
53498;DHT22;39382;47.168;16.008;2023-04-25T03:01:47;7.40;99.90
53498;DHT22;39382;47.168;16.008;2023-04-25T03:04:12;7.30;99.90
53498;DHT22;39382;47.168;16.008;2023-04-25T03:06:38;7.20;99.90
53498;DHT22;39382;47.168;16.008;2023-04-25T03:09:04;7.10;99.90
53498;DHT22;39382;47.168;16.008;2023-04-25T03:11:29;7.00;99.90
53498;DHT22;39382;47.168;16.008;2023-04-25T03:13:55;6.90;99.90
53498;DHT22;39382;47.168;16.008;2023-04-25T03:16:21;6.80;99.90
53498;DHT22;39382;47.168;16.008;2023-04-25T03:18:47;6.80;99.90
53498;DHT22;39382;47.168;16.008;2023-04-25T03:21:13;6.70;99.90
53498;DHT22;39382;47.168;16.008;2023-04-25T03:23:38;6.70;99.90
53498;DHT22;39382;47.168;16.008;2023-04-25T03:26:04;6.60;99.90
53498;DHT22;39382;47.168;16.008;2023-04-25T03:28:30;6.60;99.90
53498;DHT22;39382;47.168;16.008;2023-04-25T03:30:56;6.60;99.90
53498;DHT22;39382;47.168;16.008;2023-04-25T03:33:21;6.50;99.90
53498;DHT22;39382;47.168;16.008;2023-04-25T03:35:47;6.50;99.90
53498;DHT22;39382;47.168;16.008;2023-04-25T03:38:13;6.50;99.90
53498;DHT22;39382;47.168;16.008;2023-04-25T03:40:38;6.40;99.90
53498;DHT22;39382;47.168;16.008;2023-04-25T03:43:04;6.30;99.90
53498;DHT22;39382;47.168;16.008;2023-04-25T03:45:30;6.30;99.90
53498;DHT22;39382;47.168;16.008;2023-04-25T03:47:56;6.30;99.90
53498;DHT22;39382;47.168;16.008;2023-04-25T03:50:21;6.20;99.90
53498;DHT22;39382;47.168;16.008;2023-04-25T03:52:47;6.10;99.90
53498;DHT22;39382;47.168;16.008;2023-04-25T03:55:13;6.00;99.90
53498;DHT22;39382;47.168;16.008;2023-04-25T03:57:38;5.90;99.90
53498;DHT22;39382;47.168;16.008;2023-04-25T04:00:04;5.90;99.90
53498;DHT22;39382;47.168;16.008;2023-04-25T04:02:31;5.80;99.90
53498;DHT22;39382;47.168;16.008;2023-04-25T04:04:58;5.70;99.90
53498;DHT22;39382;47.168;16.008;2023-04-25T04:07:24;5.70;99.90
53498;DHT22;39382;47.168;16.008;2023-04-25T04:09:49;5.70;99.90
53498;DHT22;39382;47.168;16.008;2023-04-25T04:12:15;5.70;99.90
53498;DHT22;39382;47.168;16.008;2023-04-25T04:14:40;5.60;99.90
53498;DHT22;39382;47.168;16.008;2023-04-25T04:17:06;5.50;99.90
53498;DHT22;39382;47.168;16.008;2023-04-25T04:19:32;5.50;99.90
53498;DHT22;39382;47.168;16.008;2023-04-25T04:21:57;5.50;99.90
53498;DHT22;39382;47.168;16.008;2023-04-25T04:24:23;5.40;99.90
53498;DHT22;39382;47.168;16.008;2023-04-25T04:26:49;5.30;99.90
53498;DHT22;39382;47.168;16.008;2023-04-25T04:29:16;5.40;99.90
53498;DHT22;39382;47.168;16.008;2023-04-25T04:31:48;5.40;99.90
53498;DHT22;39382;47.168;16.008;2023-04-25T04:34:13;5.40;99.90
53498;DHT22;39382;47.168;16.008;2023-04-25T04:36:39;5.40;99.90
53498;DHT22;39382;47.168;16.008;2023-04-25T04:39:06;5.50;99.90
53498;DHT22;39382;47.168;16.008;2023-04-25T04:41:31;6.30;99.90
53498;DHT22;39382;47.168;16.008;2023-04-25T04:43:57;7.60;99.90
53498;DHT22;39382;47.168;16.008;2023-04-25T04:46:23;7.10;99.90
53498;DHT22;39382;47.168;16.008;2023-04-25T04:48:50;6.60;99.90
53498;DHT22;39382;47.168;16.008;2023-04-25T04:51:15;6.30;99.90
53498;DHT22;39382;47.168;16.008;2023-04-25T04:53:41;6.30;99.90
53498;DHT22;39382;47.168;16.008;2023-04-25T04:56:06;6.50;99.90
53498;DHT22;39382;47.168;16.008;2023-04-25T04:58:32;6.30;99.90
53498;DHT22;39382;47.168;16.008;2023-04-25T05:00:58;6.30;99.90
53498;DHT22;39382;47.168;16.008;2023-04-25T05:03:24;6.40;99.90
53498;DHT22;39382;47.168;16.008;2023-04-25T05:05:49;6.50;99.90
53498;DHT22;39382;47.168;16.008;2023-04-25T05:08:15;6.60;99.90
53498;DHT22;39382;47.168;16.008;2023-04-25T05:10:41;6.70;99.90
53498;DHT22;39382;47.168;16.008;2023-04-25T05:13:07;6.80;99.90
53498;DHT22;39382;47.168;16.008;2023-04-25T05:15:32;6.90;99.90
53498;DHT22;39382;47.168;16.008;2023-04-25T05:17:58;7.00;99.90
53498;DHT22;39382;47.168;16.008;2023-04-25T05:20:24;7.00;99.90
53498;DHT22;39382;47.168;16.008;2023-04-25T05:22:49;7.10;99.90
53498;DHT22;39382;47.168;16.008;2023-04-25T05:25:15;7.20;99.90
53498;DHT22;39382;47.168;16.008;2023-04-25T05:27:41;7.30;99.90
53498;DHT22;39382;47.168;16.008;2023-04-25T05:30:07;7.40;99.90
53498;DHT22;39382;47.168;16.008;2023-04-25T05:32:33;7.40;99.90
53498;DHT22;39382;47.168;16.008;2023-04-25T05:34:59;7.60;99.90
53498;DHT22;39382;47.168;16.008;2023-04-25T05:37:25;7.60;99.90
53498;DHT22;39382;47.168;16.008;2023-04-25T05:39:50;7.80;99.90
53498;DHT22;39382;47.168;16.008;2023-04-25T05:42:16;7.90;99.90
53498;DHT22;39382;47.168;16.008;2023-04-25T05:44:42;8.00;99.90
53498;DHT22;39382;47.168;16.008;2023-04-25T05:47:07;8.10;99.90
53498;DHT22;39382;47.168;16.008;2023-04-25T05:49:34;8.30;99.90
53498;DHT22;39382;47.168;16.008;2023-04-25T05:52:00;8.40;99.90
53498;DHT22;39382;47.168;16.008;2023-04-25T05:54:25;8.50;99.90
53498;DHT22;39382;47.168;16.008;2023-04-25T05:56:51;8.70;99.90
53498;DHT22;39382;47.168;16.008;2023-04-25T05:59:17;8.90;99.90
53498;DHT22;39382;47.168;16.008;2023-04-25T06:01:42;9.10;99.90
53498;DHT22;39382;47.168;16.008;2023-04-25T06:04:08;9.20;99.90
53498;DHT22;39382;47.168;16.008;2023-04-25T06:06:33;9.50;99.90
53498;DHT22;39382;47.168;16.008;2023-04-25T06:08:59;9.50;99.90
53498;DHT22;39382;47.168;16.008;2023-04-25T06:11:25;9.70;99.90
53498;DHT22;39382;47.168;16.008;2023-04-25T06:13:51;9.80;99.90
53498;DHT22;39382;47.168;16.008;2023-04-25T06:16:17;10.00;99.90
53498;DHT22;39382;47.168;16.008;2023-04-25T06:18:42;10.20;99.90
53498;DHT22;39382;47.168;16.008;2023-04-25T06:21:08;10.30;99.90
53498;DHT22;39382;47.168;16.008;2023-04-25T06:23:33;10.50;99.90
53498;DHT22;39382;47.168;16.008;2023-04-25T06:25:59;10.50;99.90
53498;DHT22;39382;47.168;16.008;2023-04-25T06:28:25;10.70;99.90
53498;DHT22;39382;47.168;16.008;2023-04-25T06:30:51;10.80;99.90
53498;DHT22;39382;47.168;16.008;2023-04-25T06:33:16;11.00;99.90
53498;DHT22;39382;47.168;16.008;2023-04-25T06:35:42;11.10;99.90
53498;DHT22;39382;47.168;16.008;2023-04-25T06:38:08;11.20;99.90
53498;DHT22;39382;47.168;16.008;2023-04-25T06:40:33;11.30;98.60
53498;DHT22;39382;47.168;16.008;2023-04-25T06:42:59;11.40;99.00
53498;DHT22;39382;47.168;16.008;2023-04-25T06:45:25;11.50;99.30
53498;DHT22;39382;47.168;16.008;2023-04-25T06:47:51;11.60;98.70
53498;DHT22;39382;47.168;16.008;2023-04-25T06:50:16;11.80;97.30
53498;DHT22;39382;47.168;16.008;2023-04-25T06:52:42;11.90;95.20
53498;DHT22;39382;47.168;16.008;2023-04-25T06:55:08;12.00;93.40
53498;DHT22;39382;47.168;16.008;2023-04-25T06:57:34;12.10;90.90
53498;DHT22;39382;47.168;16.008;2023-04-25T06:59:59;12.30;85.70
53498;DHT22;39382;47.168;16.008;2023-04-25T07:02:25;12.50;77.40
53498;DHT22;39382;47.168;16.008;2023-04-25T07:04:51;12.60;76.10
53498;DHT22;39382;47.168;16.008;2023-04-25T07:07:16;12.70;72.70
53498;DHT22;39382;47.168;16.008;2023-04-25T07:09:42;12.90;73.00
53498;DHT22;39382;47.168;16.008;2023-04-25T07:12:08;12.90;70.80
53498;DHT22;39382;47.168;16.008;2023-04-25T07:14:33;13.00;70.60
53498;DHT22;39382;47.168;16.008;2023-04-25T07:16:59;13.10;67.90
53498;DHT22;39382;47.168;16.008;2023-04-25T07:19:25;13.20;71.20
53498;DHT22;39382;47.168;16.008;2023-04-25T07:21:52;13.30;71.80
53498;DHT22;39382;47.168;16.008;2023-04-25T07:24:18;13.30;68.60
53498;DHT22;39382;47.168;16.008;2023-04-25T07:26:43;13.40;69.10
53498;DHT22;39382;47.168;16.008;2023-04-25T07:29:10;13.60;67.10
53498;DHT22;39382;47.168;16.008;2023-04-25T07:31:35;13.60;64.00
53498;DHT22;39382;47.168;16.008;2023-04-25T07:34:01;13.60;63.90
53498;DHT22;39382;47.168;16.008;2023-04-25T07:36:27;13.80;63.90
53498;DHT22;39382;47.168;16.008;2023-04-25T07:38:53;13.70;63.40
53498;DHT22;39382;47.168;16.008;2023-04-25T07:41:18;13.80;62.20
53498;DHT22;39382;47.168;16.008;2023-04-25T07:43:44;13.90;61.20
53498;DHT22;39382;47.168;16.008;2023-04-25T07:46:10;13.80;62.20
53498;DHT22;39382;47.168;16.008;2023-04-25T07:48:36;14.00;63.00
53498;DHT22;39382;47.168;16.008;2023-04-25T07:51:01;14.20;63.00
53498;DHT22;39382;47.168;16.008;2023-04-25T07:53:28;14.20;61.30
53498;DHT22;39382;47.168;16.008;2023-04-25T07:55:53;14.20;61.20
53498;DHT22;39382;47.168;16.008;2023-04-25T07:58:19;14.30;61.70
53498;DHT22;39382;47.168;16.008;2023-04-25T08:00:47;14.40;60.10
53498;DHT22;39382;47.168;16.008;2023-04-25T08:03:13;14.40;61.40
53498;DHT22;39382;47.168;16.008;2023-04-25T08:05:39;14.60;60.40
53498;DHT22;39382;47.168;16.008;2023-04-25T08:08:05;14.70;60.00
53498;DHT22;39382;47.168;16.008;2023-04-25T08:10:34;14.90;62.80
53498;DHT22;39382;47.168;16.008;2023-04-25T08:13:00;14.90;61.20
53498;DHT22;39382;47.168;16.008;2023-04-25T08:15:25;15.00;63.90
53498;DHT22;39382;47.168;16.008;2023-04-25T08:17:51;15.30;64.10
53498;DHT22;39382;47.168;16.008;2023-04-25T08:20:17;15.50;61.40
53498;DHT22;39382;47.168;16.008;2023-04-25T08:22:43;15.40;57.60
53498;DHT22;39382;47.168;16.008;2023-04-25T08:25:08;15.50;61.50
53498;DHT22;39382;47.168;16.008;2023-04-25T08:27:34;15.80;60.30
53498;DHT22;39382;47.168;16.008;2023-04-25T08:30:00;15.90;58.00
53498;DHT22;39382;47.168;16.008;2023-04-25T08:32:27;15.90;61.70
53498;DHT22;39382;47.168;16.008;2023-04-25T08:34:52;15.80;59.40
53498;DHT22;39382;47.168;16.008;2023-04-25T08:37:20;15.80;68.50
53498;DHT22;39382;47.168;16.008;2023-04-25T08:39:46;15.80;60.10
53498;DHT22;39382;47.168;16.008;2023-04-25T08:42:15;15.90;65.60
53498;DHT22;39382;47.168;16.008;2023-04-25T08:44:41;15.80;59.60
53498;DHT22;39382;47.168;16.008;2023-04-25T08:47:06;15.80;61.10
53498;DHT22;39382;47.168;16.008;2023-04-25T08:49:33;15.70;59.30
53498;DHT22;39382;47.168;16.008;2023-04-25T08:52:03;15.70;68.20
53498;DHT22;39382;47.168;16.008;2023-04-25T08:54:31;15.90;64.10
53498;DHT22;39382;47.168;16.008;2023-04-25T08:57:00;16.00;59.20
53498;DHT22;39382;47.168;16.008;2023-04-25T08:59:30;16.10;60.30
53498;DHT22;39382;47.168;16.008;2023-04-25T09:01:55;16.10;62.30
53498;DHT22;39382;47.168;16.008;2023-04-25T09:04:22;16.10;61.70
53498;DHT22;39382;47.168;16.008;2023-04-25T09:06:48;16.10;60.80
53498;DHT22;39382;47.168;16.008;2023-04-25T09:09:13;16.20;65.10
53498;DHT22;39382;47.168;16.008;2023-04-25T09:11:40;16.20;62.90
53498;DHT22;39382;47.168;16.008;2023-04-25T09:14:20;16.20;60.20
53498;DHT22;39382;47.168;16.008;2023-04-25T09:19:32;16.30;60.00
53498;DHT22;39382;47.168;16.008;2023-04-25T09:22:00;16.20;62.80
53498;DHT22;39382;47.168;16.008;2023-04-25T09:26:57;16.30;61.70
53498;DHT22;39382;47.168;16.008;2023-04-25T09:29:34;16.30;61.30
53498;DHT22;39382;47.168;16.008;2023-04-25T09:32:20;16.30;62.90
53498;DHT22;39382;47.168;16.008;2023-04-25T09:34:51;16.40;57.50
53498;DHT22;39382;47.168;16.008;2023-04-25T09:37:28;16.40;57.60
53498;DHT22;39382;47.168;16.008;2023-04-25T09:39:57;16.40;58.40
53498;DHT22;39382;47.168;16.008;2023-04-25T09:42:27;16.50;56.70
53498;DHT22;39382;47.168;16.008;2023-04-25T09:44:55;16.50;55.50
53498;DHT22;39382;47.168;16.008;2023-04-25T09:47:22;16.50;58.40
53498;DHT22;39382;47.168;16.008;2023-04-25T09:49:49;16.60;57.60
53498;DHT22;39382;47.168;16.008;2023-04-25T09:52:20;16.70;57.30
53498;DHT22;39382;47.168;16.008;2023-04-25T09:54:47;16.70;59.80
53498;DHT22;39382;47.168;16.008;2023-04-25T09:57:24;16.80;58.80
53498;DHT22;39382;47.168;16.008;2023-04-25T09:59:54;16.90;56.90
53498;DHT22;39382;47.168;16.008;2023-04-25T10:02:22;17.10;57.80
53498;DHT22;39382;47.168;16.008;2023-04-25T10:04:51;17.20;55.90
53498;DHT22;39382;47.168;16.008;2023-04-25T10:07:20;17.50;55.40
53498;DHT22;39382;47.168;16.008;2023-04-25T10:09:49;17.60;55.00
53498;DHT22;39382;47.168;16.008;2023-04-25T10:12:16;17.60;53.10
53498;DHT22;39382;47.168;16.008;2023-04-25T10:14:42;17.50;54.40
53498;DHT22;39382;47.168;16.008;2023-04-25T10:17:10;17.50;54.40
53498;DHT22;39382;47.168;16.008;2023-04-25T10:19:37;17.60;54.40
53498;DHT22;39382;47.168;16.008;2023-04-25T10:22:17;17.70;53.70
53498;DHT22;39382;47.168;16.008;2023-04-25T10:24:44;17.90;52.30
53498;DHT22;39382;47.168;16.008;2023-04-25T10:27:12;17.80;49.70
53498;DHT22;39382;47.168;16.008;2023-04-25T10:29:38;17.70;52.30
53498;DHT22;39382;47.168;16.008;2023-04-25T10:32:04;17.80;49.00
53498;DHT22;39382;47.168;16.008;2023-04-25T10:34:43;17.80;48.70
53498;DHT22;39382;47.168;16.008;2023-04-25T10:37:12;17.40;47.80
53498;DHT22;39382;47.168;16.008;2023-04-25T10:39:40;17.20;46.70
53498;DHT22;39382;47.168;16.008;2023-04-25T10:42:06;17.10;49.50
53498;DHT22;39382;47.168;16.008;2023-04-25T10:44:33;17.20;50.50
53498;DHT22;39382;47.168;16.008;2023-04-25T10:47:01;17.00;48.70
53498;DHT22;39382;47.168;16.008;2023-04-25T10:49:38;16.90;48.40
53498;DHT22;39382;47.168;16.008;2023-04-25T10:54:43;16.60;51.90
53498;DHT22;39382;47.168;16.008;2023-04-25T11:00:16;16.20;52.50
53498;DHT22;39382;47.168;16.008;2023-04-25T11:02:58;16.00;54.20
53498;DHT22;39382;47.168;16.008;2023-04-25T11:05:34;15.60;60.40
53498;DHT22;39382;47.168;16.008;2023-04-25T11:08:01;15.40;57.20
53498;DHT22;39382;47.168;16.008;2023-04-25T11:10:29;15.30;56.90
53498;DHT22;39382;47.168;16.008;2023-04-25T11:12:56;15.60;63.20
53498;DHT22;39382;47.168;16.008;2023-04-25T11:15:22;15.80;59.60
53498;DHT22;39382;47.168;16.008;2023-04-25T11:17:47;16.00;57.90
53498;DHT22;39382;47.168;16.008;2023-04-25T11:20:13;16.40;65.50
53498;DHT22;39382;47.168;16.008;2023-04-25T11:22:41;16.70;63.30
53498;DHT22;39382;47.168;16.008;2023-04-25T11:25:11;16.80;62.20
53498;DHT22;39382;47.168;16.008;2023-04-25T11:27:50;16.70;55.70
53498;DHT22;39382;47.168;16.008;2023-04-25T11:30:17;16.70;56.10
53498;DHT22;39382;47.168;16.008;2023-04-25T11:32:43;16.50;55.50
53498;DHT22;39382;47.168;16.008;2023-04-25T11:35:10;16.30;56.40
53498;DHT22;39382;47.168;16.008;2023-04-25T11:37:36;16.20;58.60
53498;DHT22;39382;47.168;16.008;2023-04-25T11:40:03;16.10;58.20
53498;DHT22;39382;47.168;16.008;2023-04-25T11:42:32;16.20;58.00
53498;DHT22;39382;47.168;16.008;2023-04-25T11:44:58;16.10;58.00
53498;DHT22;39382;47.168;16.008;2023-04-25T11:47:30;16.20;60.10
53498;DHT22;39382;47.168;16.008;2023-04-25T11:49:57;16.30;58.50
53498;DHT22;39382;47.168;16.008;2023-04-25T11:52:22;16.60;58.50
53498;DHT22;39382;47.168;16.008;2023-04-25T11:54:48;17.00;58.60
53498;DHT22;39382;47.168;16.008;2023-04-25T11:57:14;17.10;58.20
53498;DHT22;39382;47.168;16.008;2023-04-25T11:59:39;17.30;55.90
53498;DHT22;39382;47.168;16.008;2023-04-25T12:02:05;17.20;55.60
53498;DHT22;39382;47.168;16.008;2023-04-25T12:04:32;17.30;56.00
53498;DHT22;39382;47.168;16.008;2023-04-25T12:06:58;17.40;53.40
53498;DHT22;39382;47.168;16.008;2023-04-25T12:09:33;17.60;57.80
53498;DHT22;39382;47.168;16.008;2023-04-25T12:12:00;17.90;54.60
53498;DHT22;39382;47.168;16.008;2023-04-25T12:14:30;18.00;53.50
53498;DHT22;39382;47.168;16.008;2023-04-25T12:16:59;17.70;54.90
53498;DHT22;39382;47.168;16.008;2023-04-25T12:19:25;17.60;52.90
53498;DHT22;39382;47.168;16.008;2023-04-25T12:21:51;17.50;54.30
53498;DHT22;39382;47.168;16.008;2023-04-25T12:24:21;17.70;54.60
53498;DHT22;39382;47.168;16.008;2023-04-25T12:29:25;17.60;53.50
53498;DHT22;39382;47.168;16.008;2023-04-25T12:31:52;17.60;54.30
53498;DHT22;39382;47.168;16.008;2023-04-25T12:34:19;17.90;53.10
53498;DHT22;39382;47.168;16.008;2023-04-25T12:36:45;17.90;55.00
53498;DHT22;39382;47.168;16.008;2023-04-25T12:39:18;18.20;49.10
53498;DHT22;39382;47.168;16.008;2023-04-25T12:41:51;18.20;46.40
53498;DHT22;39382;47.168;16.008;2023-04-25T12:44:19;18.20;48.10
53498;DHT22;39382;47.168;16.008;2023-04-25T12:46:45;18.30;46.50
53498;DHT22;39382;47.168;16.008;2023-04-25T12:49:11;18.30;47.50
53498;DHT22;39382;47.168;16.008;2023-04-25T12:51:37;18.00;46.60
53498;DHT22;39382;47.168;16.008;2023-04-25T12:54:04;17.80;47.00
53498;DHT22;39382;47.168;16.008;2023-04-25T12:56:31;18.00;48.10
53498;DHT22;39382;47.168;16.008;2023-04-25T12:58:57;18.10;48.00
53498;DHT22;39382;47.168;16.008;2023-04-25T13:01:24;18.20;48.60
53498;DHT22;39382;47.168;16.008;2023-04-25T13:03:50;18.20;48.30
53498;DHT22;39382;47.168;16.008;2023-04-25T13:06:17;18.20;47.80
53498;DHT22;39382;47.168;16.008;2023-04-25T13:08:43;18.30;48.30
53498;DHT22;39382;47.168;16.008;2023-04-25T13:11:09;18.50;45.70
53498;DHT22;39382;47.168;16.008;2023-04-25T13:13:35;18.50;46.70
53498;DHT22;39382;47.168;16.008;2023-04-25T13:16:04;18.50;44.70
53498;DHT22;39382;47.168;16.008;2023-04-25T13:18:31;18.50;44.30
53498;DHT22;39382;47.168;16.008;2023-04-25T13:20:57;18.40;43.40
53498;DHT22;39382;47.168;16.008;2023-04-25T13:23:26;18.30;45.70
53498;DHT22;39382;47.168;16.008;2023-04-25T13:25:52;18.40;45.10
53498;DHT22;39382;47.168;16.008;2023-04-25T13:28:18;18.40;45.90
53498;DHT22;39382;47.168;16.008;2023-04-25T13:30:44;18.30;44.10
53498;DHT22;39382;47.168;16.008;2023-04-25T13:33:09;18.50;45.80
53498;DHT22;39382;47.168;16.008;2023-04-25T13:35:37;18.70;45.30
53498;DHT22;39382;47.168;16.008;2023-04-25T13:38:03;18.70;45.70
53498;DHT22;39382;47.168;16.008;2023-04-25T13:40:29;18.90;47.30
53498;DHT22;39382;47.168;16.008;2023-04-25T13:42:55;18.90;43.50
53498;DHT22;39382;47.168;16.008;2023-04-25T13:45:21;18.70;45.80
53498;DHT22;39382;47.168;16.008;2023-04-25T13:47:47;18.20;45.20
53498;DHT22;39382;47.168;16.008;2023-04-25T13:50:13;18.00;46.90
53498;DHT22;39382;47.168;16.008;2023-04-25T13:52:39;17.90;45.70
53498;DHT22;39382;47.168;16.008;2023-04-25T13:55:06;17.80;46.60
53498;DHT22;39382;47.168;16.008;2023-04-25T13:57:33;17.90;45.10
53498;DHT22;39382;47.168;16.008;2023-04-25T13:59:59;17.70;47.40
53498;DHT22;39382;47.168;16.008;2023-04-25T14:02:25;17.80;47.70
53498;DHT22;39382;47.168;16.008;2023-04-25T14:04:51;17.60;46.20
53498;DHT22;39382;47.168;16.008;2023-04-25T14:07:18;17.60;45.40
53498;DHT22;39382;47.168;16.008;2023-04-25T14:09:46;17.70;46.20
53498;DHT22;39382;47.168;16.008;2023-04-25T14:12:12;17.70;46.10
53498;DHT22;39382;47.168;16.008;2023-04-25T14:14:38;17.60;47.70
53498;DHT22;39382;47.168;16.008;2023-04-25T14:17:03;17.50;46.20
53498;DHT22;39382;47.168;16.008;2023-04-25T14:19:29;17.50;46.80
53498;DHT22;39382;47.168;16.008;2023-04-25T14:21:55;17.40;45.30
53498;DHT22;39382;47.168;16.008;2023-04-25T14:24:21;17.50;47.50
53498;DHT22;39382;47.168;16.008;2023-04-25T14:26:46;17.20;46.10
53498;DHT22;39382;47.168;16.008;2023-04-25T14:29:12;17.20;46.80
53498;DHT22;39382;47.168;16.008;2023-04-25T14:31:39;17.10;46.40
53498;DHT22;39382;47.168;16.008;2023-04-25T14:34:05;17.00;47.30
53498;DHT22;39382;47.168;16.008;2023-04-25T14:36:31;17.00;48.20
53498;DHT22;39382;47.168;16.008;2023-04-25T14:38:58;16.80;47.30
53498;DHT22;39382;47.168;16.008;2023-04-25T14:41:24;16.50;55.20
53498;DHT22;39382;47.168;16.008;2023-04-25T14:43:50;16.00;58.90
53498;DHT22;39382;47.168;16.008;2023-04-25T14:46:16;15.50;56.90
53498;DHT22;39382;47.168;16.008;2023-04-25T14:48:42;15.20;58.90
53498;DHT22;39382;47.168;16.008;2023-04-25T14:51:08;15.00;59.20
53498;DHT22;39382;47.168;16.008;2023-04-25T14:53:33;14.60;59.30
53498;DHT22;39382;47.168;16.008;2023-04-25T14:55:59;14.40;61.40
53498;DHT22;39382;47.168;16.008;2023-04-25T14:58:25;14.40;61.50
53498;DHT22;39382;47.168;16.008;2023-04-25T15:00:50;14.40;60.80
53498;DHT22;39382;47.168;16.008;2023-04-25T15:03:16;14.40;61.40
53498;DHT22;39382;47.168;16.008;2023-04-25T15:05:42;14.50;60.80
53498;DHT22;39382;47.168;16.008;2023-04-25T15:08:08;14.60;60.30
53498;DHT22;39382;47.168;16.008;2023-04-25T15:10:34;14.60;62.40
53498;DHT22;39382;47.168;16.008;2023-04-25T15:13:00;14.70;61.80
53498;DHT22;39382;47.168;16.008;2023-04-25T15:15:27;14.70;59.20
53498;DHT22;39382;47.168;16.008;2023-04-25T15:17:53;14.70;60.00
53498;DHT22;39382;47.168;16.008;2023-04-25T15:20:20;14.70;60.00
53498;DHT22;39382;47.168;16.008;2023-04-25T15:22:46;14.90;59.60
53498;DHT22;39382;47.168;16.008;2023-04-25T15:25:14;14.90;60.30
53498;DHT22;39382;47.168;16.008;2023-04-25T15:27:41;14.90;59.60
53498;DHT22;39382;47.168;16.008;2023-04-25T15:30:09;15.00;59.30
53498;DHT22;39382;47.168;16.008;2023-04-25T15:32:37;14.90;57.70